createdAt,value
2023-08-07T00:00:51.767Z,84.93
2023-08-07T00:01:51.729Z,84.93
2023-08-07T00:02:51.841Z,85.44
2023-08-07T00:03:51.734Z,84.83
2023-08-07T00:04:51.716Z,84.73
2023-08-07T00:05:51.688Z,84.83
2023-08-07T00:06:51.686Z,84.63
2023-08-07T00:07:51.649Z,84.73
2023-08-07T00:08:51.641Z,85.13
2023-08-07T00:09:51.637Z,84.97
2023-08-07T00:10:51.624Z,85.03
2023-08-07T00:11:51.622Z,84.93
2023-08-07T00:12:51.630Z,83.72
2023-08-07T00:13:51.595Z,84.16
2023-08-07T00:14:51.613Z,84.53
2023-08-07T00:15:51.628Z,84.67
2023-08-07T00:16:51.579Z,84.56
2023-08-07T00:17:51.579Z,84.67
2023-08-07T00:18:51.536Z,84.36
2023-08-07T00:19:51.530Z,84.87
2023-08-07T00:20:51.558Z,84.56
2023-08-07T00:21:51.510Z,84.47
2023-08-07T00:22:51.514Z,84.77
2023-08-07T00:23:51.476Z,84.87
2023-08-07T00:24:51.478Z,85.07
2023-08-07T00:25:51.479Z,85.27
2023-08-07T00:26:51.483Z,84.47
2023-08-07T00:27:51.455Z,84.56
2023-08-07T00:28:51.434Z,84.87
2023-08-07T00:29:51.447Z,84.87
2023-08-07T00:30:51.435Z,84.93
2023-08-07T00:31:51.403Z,84.63
2023-08-07T00:32:51.432Z,84.53
2023-08-07T00:33:51.385Z,84.33
2023-08-07T00:34:51.413Z,84.02
2023-08-07T00:35:51.360Z,84.12
2023-08-07T00:36:51.450Z,83.82
2023-08-07T00:37:51.345Z,84.47
2023-08-07T00:38:51.336Z,84.67
2023-08-07T00:39:51.352Z,84.97
2023-08-07T00:40:51.319Z,84.87
2023-08-07T00:41:51.297Z,84.87
2023-08-07T00:42:51.307Z,84.77
2023-08-07T00:43:51.362Z,84.77
2023-08-07T00:44:51.291Z,84.77
2023-08-07T00:45:51.264Z,84.77
2023-08-07T00:46:51.268Z,84.77
2023-08-07T00:47:51.297Z,84.56
2023-08-07T00:48:51.251Z,83.96
2023-08-07T00:49:51.218Z,84.27
2023-08-07T00:50:51.212Z,84.16
2023-08-07T00:51:51.205Z,84.06
2023-08-07T00:52:51.194Z,84.67
2023-08-07T00:53:51.193Z,84.47
2023-08-07T00:54:51.173Z,84.67
2023-08-07T00:55:51.162Z,84.47
2023-08-07T00:56:51.170Z,84.27
2023-08-07T00:57:51.177Z,84.27
2023-08-07T00:58:51.151Z,84.36
2023-08-07T00:59:51.128Z,84.33
2023-08-07T01:00:51.131Z,84.12
2023-08-07T01:01:51.102Z,84.33
2023-08-07T01:02:51.137Z,84.22
2023-08-07T01:03:51.073Z,84.12
2023-08-07T01:04:51.076Z,83.82
2023-08-07T01:05:51.055Z,84.02
2023-08-07T01:06:51.091Z,83.92
2023-08-07T01:07:51.048Z,84.33
2023-08-07T01:08:51.028Z,84.42
2023-08-07T01:09:51.022Z,84.63
2023-08-07T01:10:51.012Z,84.53
2023-08-07T01:11:51.024Z,84.33
2023-08-07T01:12:51.003Z,84.42
2023-08-07T01:13:50.982Z,84.42
2023-08-07T01:14:50.967Z,84.22
2023-08-07T01:15:50.950Z,83.72
2023-08-07T01:16:51.112Z,83.72
2023-08-07T01:17:50.968Z,84.02
2023-08-07T01:18:50.936Z,83.82
2023-08-07T01:19:50.908Z,83.61
2023-08-07T01:20:50.904Z,83.92
2023-08-07T01:21:50.920Z,83.92
2023-08-07T01:22:50.913Z,83.72
2023-08-07T01:23:50.878Z,83.61
2023-08-07T01:24:50.875Z,83.61
2023-08-07T01:25:50.865Z,82.90
2023-08-07T01:26:50.892Z,82.60
2023-08-07T01:27:50.824Z,83.01
2023-08-07T01:28:50.836Z,83.11
2023-08-07T01:29:50.902Z,83.21
2023-08-07T01:30:50.833Z,83.41
2023-08-07T01:31:50.782Z,83.31
2023-08-07T01:32:50.812Z,83.51
2023-08-07T01:33:50.768Z,83.61
2023-08-07T01:34:50.761Z,83.72
2023-08-07T01:35:50.768Z,83.51
2023-08-07T01:36:50.780Z,82.90
2023-08-07T01:37:50.743Z,82.81
2023-08-07T01:38:50.718Z,83.31
2023-08-07T01:39:50.722Z,83.51
2023-08-07T01:40:50.715Z,83.41
2023-08-07T01:41:50.680Z,83.51
2023-08-07T01:42:50.685Z,83.01
2023-08-07T01:43:50.682Z,82.70
2023-08-07T01:44:50.689Z,82.81
2023-08-07T01:45:50.653Z,82.50
2023-08-07T01:46:50.650Z,81.79
2023-08-07T01:47:50.672Z,82.50
2023-08-07T01:48:50.617Z,83.01
2023-08-07T01:49:50.623Z,82.70
2023-08-07T01:50:50.591Z,82.64
2023-08-07T01:51:50.584Z,83.15
2023-08-07T01:52:50.573Z,82.54
2023-08-07T01:53:50.590Z,82.95
2023-08-07T01:54:50.565Z,83.25
2023-08-07T01:55:50.553Z,83.31
2023-08-07T01:56:50.528Z,83.25
2023-08-07T01:57:50.523Z,83.01
2023-08-07T01:58:50.520Z,82.84
2023-08-07T01:59:50.499Z,82.90
2023-08-07T02:00:50.491Z,83.55
2023-08-07T02:01:50.516Z,83.21
2023-08-07T02:02:50.543Z,83.25
2023-08-07T02:03:50.572Z,82.95
2023-08-07T02:04:50.459Z,83.04
2023-08-07T02:05:50.458Z,82.60
2023-08-07T02:06:50.422Z,83.41
2023-08-07T02:07:50.436Z,83.31
2023-08-07T02:08:50.444Z,82.30
2023-08-07T02:09:50.401Z,82.30
2023-08-07T02:10:50.385Z,82.90
2023-08-07T02:11:50.374Z,82.70
2023-08-07T02:12:50.386Z,83.15
2023-08-07T02:13:50.373Z,82.84
2023-08-07T02:14:50.359Z,82.84
2023-08-07T02:15:50.335Z,83.04
2023-08-07T02:16:50.346Z,82.84
2023-08-07T02:17:50.364Z,82.75
2023-08-07T02:18:50.297Z,83.04
2023-08-07T02:19:50.299Z,82.84
2023-08-07T02:20:50.284Z,82.84
2023-08-07T02:21:50.301Z,83.25
2023-08-07T02:22:50.263Z,82.84
2023-08-07T02:23:50.250Z,83.15
2023-08-07T02:24:50.248Z,82.84
2023-08-07T02:25:50.238Z,82.84
2023-08-07T02:26:50.276Z,83.25
2023-08-07T02:27:50.217Z,83.45
2023-08-07T02:28:50.245Z,83.55
2023-08-07T02:29:50.187Z,83.76
2023-08-07T02:30:50.210Z,83.45
2023-08-07T02:31:50.219Z,83.55
2023-08-07T02:32:50.237Z,83.65
2023-08-07T02:33:50.148Z,83.25
2023-08-07T02:34:50.134Z,83.39
2023-08-07T02:35:50.140Z,83.55
2023-08-07T02:36:50.117Z,83.59
2023-08-07T02:37:50.121Z,83.59
2023-08-07T02:38:50.088Z,83.39
2023-08-07T02:39:50.083Z,83.25
2023-08-07T02:40:50.092Z,83.59
2023-08-07T02:41:50.078Z,83.18
2023-08-07T02:42:50.070Z,83.39
2023-08-07T02:43:50.051Z,83.29
2023-08-07T02:44:50.048Z,83.29
2023-08-07T02:45:50.081Z,83.39
2023-08-07T02:46:50.010Z,83.18
2023-08-07T02:47:50.073Z,83.29
2023-08-07T02:48:49.993Z,83.09
2023-08-07T02:49:50.003Z,82.89
2023-08-07T02:50:49.985Z,82.89
2023-08-07T02:51:49.971Z,83.09
2023-08-07T02:52:49.946Z,83.09
2023-08-07T02:53:49.941Z,83.29
2023-08-07T02:54:49.931Z,82.98
2023-08-07T02:55:49.923Z,83.39
2023-08-07T02:56:49.936Z,83.49
2023-08-07T02:57:49.894Z,83.09
2023-08-07T02:58:49.894Z,83.49
2023-08-07T02:59:49.909Z,83.59
2023-08-07T03:00:49.881Z,83.90
2023-08-07T03:01:49.898Z,83.80
2023-08-07T03:02:49.854Z,83.69
2023-08-07T03:03:49.845Z,84.00
2023-08-07T03:04:49.851Z,84.30
2023-08-07T03:05:49.806Z,84.20
2023-08-07T03:06:49.802Z,84.00
2023-08-07T03:07:49.786Z,84.30
2023-08-07T03:08:49.803Z,83.69
2023-08-07T03:09:49.772Z,83.80
2023-08-07T03:10:49.752Z,83.90
2023-08-07T03:11:49.748Z,83.69
2023-08-07T03:12:49.749Z,84.41
2023-08-07T03:13:49.741Z,84.00
2023-08-07T03:14:49.709Z,84.00
2023-08-07T03:15:49.741Z,83.80
2023-08-07T03:16:49.701Z,83.59
2023-08-07T03:17:49.724Z,83.59
2023-08-07T03:18:49.664Z,83.29
2023-08-07T03:19:49.681Z,82.98
2023-08-07T03:20:49.649Z,82.98
2023-08-07T03:21:49.642Z,83.49
2023-08-07T03:22:49.644Z,83.29
2023-08-07T03:23:49.634Z,83.59
2023-08-07T03:24:49.636Z,83.69
2023-08-07T03:25:49.599Z,83.69
2023-08-07T03:26:49.604Z,83.80
2023-08-07T03:27:49.584Z,84.20
2023-08-07T03:28:49.927Z,84.10
2023-08-07T03:29:49.558Z,84.30
2023-08-07T03:30:49.550Z,83.90
2023-08-07T03:31:49.572Z,83.49
2023-08-07T03:32:49.553Z,83.90
2023-08-07T03:33:49.520Z,83.59
2023-08-07T03:34:49.543Z,83.29
2023-08-07T03:35:49.497Z,83.39
2023-08-07T03:36:49.499Z,83.29
2023-08-07T03:37:49.477Z,83.59
2023-08-07T03:38:49.466Z,83.59
2023-08-07T03:39:49.458Z,83.59
2023-08-07T03:40:49.456Z,83.59
2023-08-07T03:41:49.443Z,83.69
2023-08-07T03:42:49.468Z,84.00
2023-08-07T03:43:49.413Z,83.55
2023-08-07T03:44:49.391Z,83.39
2023-08-07T03:45:49.435Z,83.55
2023-08-07T03:46:49.368Z,83.65
2023-08-07T03:47:49.450Z,83.86
2023-08-07T03:48:49.356Z,83.76
2023-08-07T03:49:49.366Z,83.76
2023-08-07T03:50:49.358Z,84.06
2023-08-07T03:51:49.325Z,84.16
2023-08-07T03:52:49.315Z,84.06
2023-08-07T03:53:49.315Z,84.27
2023-08-07T03:54:49.313Z,84.36
2023-08-07T03:55:49.283Z,84.16
2023-08-07T03:56:49.268Z,83.65
2023-08-07T03:57:49.275Z,83.25
2023-08-07T03:58:49.248Z,82.75
2023-08-07T03:59:49.262Z,82.34
2023-08-07T04:00:49.310Z,82.54
2023-08-07T04:01:49.222Z,83.15
2023-08-07T04:02:49.243Z,82.84
2023-08-07T04:03:49.433Z,83.04
2023-08-07T04:04:49.216Z,82.95
2023-08-07T04:05:49.133Z,83.15
2023-08-07T04:06:49.112Z,83.25
2023-08-07T04:07:49.159Z,83.45
2023-08-07T04:08:49.167Z,82.64
2023-08-07T04:09:49.140Z,82.64
2023-08-07T04:10:49.122Z,82.54
2023-08-07T04:11:49.121Z,82.64
2023-08-07T04:12:49.112Z,82.75
2023-08-07T04:13:49.113Z,82.95
2023-08-07T04:14:49.092Z,83.04
2023-08-07T04:15:49.108Z,83.04
2023-08-07T04:16:49.064Z,83.15
2023-08-07T04:17:49.092Z,83.04
2023-08-07T04:18:49.070Z,83.15
2023-08-07T04:19:49.038Z,83.15
2023-08-07T04:20:49.017Z,83.35
2023-08-07T04:21:48.974Z,83.65
2023-08-07T04:22:48.959Z,83.76
2023-08-07T04:23:49.000Z,83.55
2023-08-07T04:24:48.939Z,83.35
2023-08-07T04:25:48.971Z,83.55
2023-08-07T04:26:48.960Z,83.55
2023-08-07T04:27:48.976Z,83.45
2023-08-07T04:28:48.910Z,83.35
2023-08-07T04:29:48.890Z,83.25
2023-08-07T04:30:48.884Z,83.35
2023-08-07T04:31:48.877Z,83.35
2023-08-07T04:32:48.889Z,83.45
2023-08-07T04:33:48.836Z,83.25
2023-08-07T04:34:48.847Z,83.45
2023-08-07T04:35:48.985Z,83.76
2023-08-07T04:36:48.832Z,83.65
2023-08-07T04:37:48.798Z,83.55
2023-08-07T04:38:48.782Z,83.65
2023-08-07T04:39:48.777Z,83.96
2023-08-07T04:40:48.817Z,84.36
2023-08-07T04:41:48.771Z,84.47
2023-08-07T04:42:48.797Z,84.36
2023-08-07T04:43:48.802Z,84.47
2023-08-07T04:44:48.781Z,84.56
2023-08-07T04:45:48.772Z,84.77
2023-08-07T04:46:48.715Z,84.87
2023-08-07T04:47:48.740Z,85.07
2023-08-07T04:48:48.687Z,85.07
2023-08-07T04:49:48.669Z,84.97
2023-08-07T04:50:48.674Z,85.52
2023-08-07T04:51:48.658Z,85.72
2023-08-07T04:52:48.643Z,85.82
2023-08-07T04:53:48.625Z,86.13
2023-08-07T04:54:48.630Z,86.33
2023-08-07T04:55:48.624Z,86.43
2023-08-07T04:56:48.598Z,86.33
2023-08-07T04:57:48.617Z,86.33
2023-08-07T04:58:48.574Z,86.43
2023-08-07T04:59:48.586Z,86.33
2023-08-07T05:00:48.572Z,86.19
2023-08-07T05:01:48.560Z,86.39
2023-08-07T05:02:48.603Z,86.39
2023-08-07T05:03:48.590Z,86.33
2023-08-07T05:04:48.530Z,86.43
2023-08-07T05:05:48.521Z,86.43
2023-08-07T05:06:48.484Z,86.53
2023-08-07T05:07:48.498Z,86.29
2023-08-07T05:08:48.482Z,86.59
2023-08-07T05:09:48.480Z,86.19
2023-08-07T05:10:48.446Z,86.49
2023-08-07T05:11:48.433Z,86.29
2023-08-07T05:12:48.423Z,86.08
2023-08-07T05:13:48.442Z,86.19
2023-08-07T05:14:48.404Z,86.39
2023-08-07T05:15:48.399Z,86.29
2023-08-07T05:16:48.402Z,86.49
2023-08-07T05:17:48.424Z,86.19
2023-08-07T05:18:50.890Z,86.19
2023-08-07T05:19:48.353Z,86.73
2023-08-07T05:20:48.347Z,86.69
2023-08-07T05:21:48.336Z,86.29
2023-08-07T05:22:48.348Z,85.99
2023-08-07T05:23:48.326Z,85.99
2023-08-07T05:24:48.295Z,85.88
2023-08-07T05:25:49.823Z,85.99
2023-08-07T05:26:48.285Z,85.99
2023-08-07T05:27:48.303Z,85.88
2023-08-07T05:28:48.256Z,85.88
2023-08-07T05:29:48.249Z,86.08
2023-08-07T05:30:48.334Z,86.08
2023-08-07T05:31:48.225Z,86.19
2023-08-07T05:32:48.257Z,85.68
2023-08-07T05:33:48.201Z,85.48
2023-08-07T05:34:48.202Z,85.38
2023-08-07T05:35:48.179Z,85.38
2023-08-07T05:36:48.190Z,85.38
2023-08-07T05:37:48.189Z,85.58
2023-08-07T05:38:48.145Z,85.48
2023-08-07T05:39:48.137Z,85.27
2023-08-07T05:40:48.137Z,85.07
2023-08-07T05:41:48.140Z,85.17
2023-08-07T05:42:48.101Z,85.27
2023-08-07T05:43:48.095Z,85.38
2023-08-07T05:44:48.101Z,85.48
2023-08-07T05:45:48.073Z,85.88
2023-08-07T05:46:48.082Z,85.99
2023-08-07T05:47:48.108Z,84.56
2023-08-07T05:48:48.047Z,84.27
2023-08-07T05:49:48.038Z,84.47
2023-08-07T05:50:48.039Z,83.65
2023-08-07T05:51:48.033Z,83.76
2023-08-07T05:52:47.997Z,84.27
2023-08-07T05:53:48.008Z,84.27
2023-08-07T05:54:47.980Z,84.77
2023-08-07T05:55:48.029Z,84.67
2023-08-07T05:56:47.963Z,84.67
2023-08-07T05:57:47.988Z,84.67
2023-08-07T05:58:47.938Z,84.56
2023-08-07T05:59:47.939Z,84.06
2023-08-07T06:00:47.965Z,84.47
2023-08-07T06:01:47.974Z,84.77
2023-08-07T06:02:47.955Z,85.07
2023-08-07T06:03:47.912Z,85.38
2023-08-07T06:04:47.902Z,84.97
2023-08-07T06:05:47.873Z,84.47
2023-08-07T06:06:47.860Z,84.06
2023-08-07T06:07:47.849Z,84.36
2023-08-07T06:08:47.840Z,84.56
2023-08-07T06:09:47.831Z,84.67
2023-08-07T06:10:47.814Z,84.67
2023-08-07T06:11:47.810Z,84.77
2023-08-07T06:12:47.794Z,84.97
2023-08-07T06:13:47.776Z,84.67
2023-08-07T06:14:47.794Z,83.96
2023-08-07T06:15:47.771Z,83.86
2023-08-07T06:16:47.796Z,84.47
2023-08-07T06:17:47.759Z,84.56
2023-08-07T06:18:47.748Z,84.87
2023-08-07T06:19:47.727Z,84.67
2023-08-07T06:20:47.711Z,84.47
2023-08-07T06:21:47.697Z,84.56
2023-08-07T06:22:47.688Z,85.07
2023-08-07T06:23:47.693Z,85.03
2023-08-07T06:24:47.667Z,85.13
2023-08-07T06:25:47.665Z,84.83
2023-08-07T06:26:47.639Z,85.24
2023-08-07T06:27:47.628Z,85.13
2023-08-07T06:28:47.644Z,84.83
2023-08-07T06:29:47.611Z,84.73
2023-08-07T06:30:47.609Z,85.24
2023-08-07T06:31:47.679Z,85.94
2023-08-07T06:32:47.609Z,85.84
2023-08-07T06:33:47.582Z,85.64
2023-08-07T06:34:47.570Z,85.54
2023-08-07T06:35:47.543Z,85.64
2023-08-07T06:36:47.562Z,85.94
2023-08-07T06:37:47.539Z,86.05
2023-08-07T06:38:47.513Z,85.84
2023-08-07T06:39:49.608Z,85.74
2023-08-07T06:40:47.532Z,86.05
2023-08-07T06:41:47.523Z,86.25
2023-08-07T06:42:47.507Z,86.05
2023-08-07T06:43:47.465Z,86.15
2023-08-07T06:44:47.457Z,86.15
2023-08-07T06:45:47.460Z,86.25
2023-08-07T06:46:47.456Z,86.25
2023-08-07T06:47:47.453Z,86.35
2023-08-07T06:48:47.425Z,86.65
2023-08-07T06:49:47.409Z,86.65
2023-08-07T06:50:47.403Z,86.85
2023-08-07T06:51:47.393Z,86.35
2023-08-07T06:52:47.384Z,85.74
2023-08-07T06:53:47.354Z,86.15
2023-08-07T06:54:47.393Z,85.94
2023-08-07T06:55:47.352Z,84.63
2023-08-07T06:56:47.351Z,85.13
2023-08-07T06:57:47.325Z,85.44
2023-08-07T06:58:47.320Z,85.54
2023-08-07T06:59:47.296Z,85.94
2023-08-07T07:00:47.309Z,86.05
2023-08-07T07:01:47.328Z,86.15
2023-08-07T07:02:47.314Z,86.15
2023-08-07T07:03:47.289Z,86.45
2023-08-07T07:04:47.245Z,86.55
2023-08-07T07:05:47.259Z,86.35
2023-08-07T07:06:47.225Z,86.35
2023-08-07T07:07:47.255Z,85.74
2023-08-07T07:08:47.214Z,85.44
2023-08-07T07:09:47.203Z,85.03
2023-08-07T07:10:47.201Z,84.63
2023-08-07T07:11:47.213Z,85.03
2023-08-07T07:12:47.177Z,85.64
2023-08-07T07:13:47.153Z,86.25
2023-08-07T07:14:47.160Z,85.94
2023-08-07T07:15:47.134Z,85.94
2023-08-07T07:16:47.127Z,85.84
2023-08-07T07:17:47.131Z,86.55
2023-08-07T07:18:47.100Z,86.65
2023-08-07T07:19:47.113Z,85.94
2023-08-07T07:20:47.097Z,86.05
2023-08-07T07:21:47.077Z,86.05
2023-08-07T07:22:47.057Z,86.25
2023-08-07T07:23:47.063Z,85.24
2023-08-07T07:24:47.057Z,86.15
2023-08-07T07:25:47.024Z,86.85
2023-08-07T07:26:47.028Z,86.65
2023-08-07T07:27:47.009Z,86.35
2023-08-07T07:28:47.015Z,86.25
2023-08-07T07:29:47.023Z,86.45
2023-08-07T07:30:47.030Z,86.45
2023-08-07T07:31:46.973Z,86.25
2023-08-07T07:32:46.981Z,86.15
2023-08-07T07:33:46.959Z,85.54
2023-08-07T07:34:46.943Z,85.24
2023-08-07T07:35:46.938Z,84.42
2023-08-07T07:36:46.933Z,84.73
2023-08-07T07:37:46.929Z,85.33
2023-08-07T07:38:46.969Z,85.54
2023-08-07T07:39:46.908Z,85.64
2023-08-07T07:40:46.879Z,85.44
2023-08-07T07:41:46.897Z,85.13
2023-08-07T07:42:46.879Z,84.73
2023-08-07T07:43:46.848Z,84.73
2023-08-07T07:44:46.837Z,84.33
2023-08-07T07:45:46.854Z,84.42
2023-08-07T07:46:46.809Z,84.33
2023-08-07T07:47:46.856Z,84.53
2023-08-07T07:48:46.786Z,84.73
2023-08-07T07:49:46.773Z,84.33
2023-08-07T07:50:46.770Z,84.83
2023-08-07T07:51:46.791Z,84.83
2023-08-07T07:52:46.783Z,85.13
2023-08-07T07:53:49.180Z,85.64
2023-08-07T07:54:47.725Z,85.64
2023-08-07T07:55:46.710Z,85.33
2023-08-07T07:56:46.739Z,84.22
2023-08-07T07:57:46.691Z,83.72
2023-08-07T07:58:46.689Z,84.22
2023-08-07T07:59:46.669Z,84.33
2023-08-07T08:00:46.669Z,84.48
2023-08-07T08:01:46.678Z,84.69
2023-08-07T08:02:46.676Z,84.89
2023-08-07T08:03:46.726Z,85.50
2023-08-07T08:04:46.637Z,84.28
2023-08-07T08:05:46.646Z,83.47
2023-08-07T08:06:46.614Z,83.78
2023-08-07T08:07:46.602Z,84.59
2023-08-07T08:08:46.584Z,83.88
2023-08-07T08:09:46.577Z,83.17
2023-08-07T08:10:46.588Z,83.17
2023-08-07T08:11:46.559Z,83.47
2023-08-07T08:12:46.584Z,83.07
2023-08-07T08:13:46.531Z,83.17
2023-08-07T08:15:47.570Z,83.07
2023-08-07T08:16:46.502Z,83.37
2023-08-07T08:17:46.543Z,83.27
2023-08-07T08:18:10.721Z,83.17
2023-08-07T08:18:46.491Z,82.70
2023-08-07T08:19:50.999Z,82.56
2023-08-07T08:20:47.461Z,82.81
2023-08-07T08:21:46.458Z,83.27
2023-08-07T08:22:46.476Z,83.47
2023-08-07T08:23:46.421Z,82.97
2023-08-07T08:24:46.454Z,82.87
2023-08-07T08:25:46.397Z,82.16
2023-08-07T08:26:46.434Z,82.76
2023-08-07T08:27:46.388Z,83.17
2023-08-07T08:28:46.407Z,83.37
2023-08-07T08:29:46.394Z,83.47
2023-08-07T08:30:46.358Z,83.27
2023-08-07T08:31:46.350Z,83.17
2023-08-07T08:32:46.377Z,82.87
2023-08-07T08:33:46.344Z,82.67
2023-08-07T08:34:46.317Z,82.67
2023-08-07T08:35:46.320Z,83.07
2023-08-07T08:36:46.289Z,83.68
2023-08-07T08:37:46.267Z,83.64
2023-08-07T08:38:46.305Z,82.62
2023-08-07T08:39:46.287Z,82.53
2023-08-07T08:40:46.275Z,83.13
2023-08-07T08:41:46.229Z,83.13
2023-08-07T08:42:46.290Z,82.62
2023-08-07T08:43:46.244Z,82.08
2023-08-07T08:44:46.204Z,82.39
2023-08-07T08:45:46.195Z,81.78
2023-08-07T08:46:46.235Z,81.27
2023-08-07T08:47:46.208Z,81.27
2023-08-07T08:48:46.165Z,81.17
2023-08-07T08:49:46.170Z,81.78
2023-08-07T08:50:46.166Z,82.18
2023-08-07T08:51:46.129Z,81.27
2023-08-07T08:52:46.224Z,80.57
2023-08-07T08:53:46.106Z,80.87
2023-08-07T08:54:46.109Z,80.46
2023-08-07T08:55:46.082Z,80.26
2023-08-07T08:56:46.102Z,80.16
2023-08-07T08:57:46.088Z,80.57
2023-08-07T08:58:46.112Z,79.15
2023-08-07T08:59:46.046Z,79.66
2023-08-07T09:00:46.057Z,79.46
2023-08-07T09:01:46.042Z,78.75
2023-08-07T09:02:46.061Z,79.35
2023-08-07T09:03:46.047Z,78.61
2023-08-07T09:04:46.011Z,79.21
2023-08-07T09:05:45.986Z,79.62
2023-08-07T09:06:45.991Z,80.02
2023-08-07T09:07:45.960Z,78.61
2023-08-07T09:08:45.955Z,78.30
2023-08-07T09:09:45.966Z,79.41
2023-08-07T09:10:45.966Z,78.71
2023-08-07T09:11:45.937Z,79.52
2023-08-07T09:12:45.924Z,78.81
2023-08-07T09:13:45.898Z,78.91
2023-08-07T09:14:45.896Z,78.67
2023-08-07T09:15:45.913Z,79.17
2023-08-07T09:16:45.901Z,79.08
2023-08-07T09:17:45.925Z,78.47
2023-08-07T09:18:45.858Z,78.57
2023-08-07T09:19:45.839Z,78.88
2023-08-07T09:20:45.852Z,78.06
2023-08-07T09:21:45.821Z,78.06
2023-08-07T09:22:45.827Z,78.47
2023-08-07T09:23:45.805Z,78.74
2023-08-07T09:24:45.816Z,77.22
2023-08-07T09:25:45.809Z,76.11
2023-08-07T09:26:45.774Z,76.51
2023-08-07T09:27:45.760Z,76.82
2023-08-07T09:28:45.759Z,77.62
2023-08-07T09:29:45.754Z,77.42
2023-08-07T09:30:45.763Z,77.83
2023-08-07T09:31:45.717Z,76.72
2023-08-07T09:32:45.745Z,76.51
2023-08-07T09:33:45.711Z,77.62
2023-08-07T09:34:45.719Z,78.53
2023-08-07T09:35:45.679Z,78.23
2023-08-07T09:36:45.670Z,76.62
2023-08-07T09:37:45.662Z,77.02
2023-08-07T09:38:45.682Z,77.62
2023-08-07T09:39:45.649Z,76.82
2023-08-07T09:40:45.637Z,76.51
2023-08-07T09:41:45.615Z,77.02
2023-08-07T09:42:45.620Z,77.02
2023-08-07T09:43:45.615Z,77.32
2023-08-07T09:44:45.584Z,76.82
2023-08-07T09:45:45.575Z,77.02
2023-08-07T09:46:45.656Z,77.32
2023-08-07T09:47:45.593Z,76.98
2023-08-07T09:48:45.561Z,76.48
2023-08-07T09:49:45.607Z,77.08
2023-08-07T09:50:45.540Z,77.59
2023-08-07T09:51:45.534Z,77.59
2023-08-07T09:52:45.539Z,76.58
2023-08-07T09:53:45.505Z,75.98
2023-08-07T09:54:45.512Z,75.37
2023-08-07T09:55:45.476Z,75.57
2023-08-07T09:56:45.457Z,75.27
2023-08-07T09:57:45.483Z,75.77
2023-08-07T09:58:45.437Z,75.67
2023-08-07T09:59:45.439Z,75.87
2023-08-07T10:00:45.423Z,76.07
2023-08-07T10:01:45.488Z,76.68
2023-08-07T10:02:45.480Z,77.39
2023-08-07T10:03:45.578Z,76.88
2023-08-07T10:04:45.382Z,77.28
2023-08-07T10:05:45.375Z,76.78
2023-08-07T10:06:45.371Z,76.48
2023-08-07T10:07:45.396Z,76.98
2023-08-07T10:08:45.344Z,77.08
2023-08-07T10:09:45.331Z,76.78
2023-08-07T10:10:45.314Z,77.19
2023-08-07T10:11:45.340Z,78.30
2023-08-07T10:12:45.310Z,78.39
2023-08-07T10:13:45.293Z,78.19
2023-08-07T10:14:45.278Z,76.07
2023-08-07T10:15:45.268Z,77.19
2023-08-07T10:16:45.298Z,75.54
2023-08-07T10:17:45.376Z,75.57
2023-08-07T10:18:45.231Z,76.48
2023-08-07T10:19:45.239Z,76.04
2023-08-07T10:20:45.228Z,76.07
2023-08-07T10:21:45.267Z,76.04
2023-08-07T10:22:45.192Z,75.03
2023-08-07T10:23:45.192Z,76.04
2023-08-07T10:24:45.176Z,75.94
2023-08-07T10:25:45.181Z,76.04
2023-08-07T10:26:45.152Z,76.14
2023-08-07T10:27:45.153Z,76.64
2023-08-07T10:28:45.162Z,74.76
2023-08-07T10:29:45.122Z,75.47
2023-08-07T10:30:45.123Z,75.74
2023-08-07T10:31:45.154Z,74.83
2023-08-07T10:32:45.361Z,75.13
2023-08-07T10:33:45.134Z,75.84
2023-08-07T10:34:45.081Z,74.90
2023-08-07T10:35:45.079Z,74.90
2023-08-07T10:36:45.053Z,73.38
2023-08-07T10:37:45.066Z,73.38
2023-08-07T10:38:45.049Z,74.29
2023-08-07T10:39:45.048Z,73.99
2023-08-07T10:40:45.036Z,74.29
2023-08-07T10:41:45.001Z,75.20
2023-08-07T10:42:45.030Z,75.40
2023-08-07T10:43:45.041Z,75.10
2023-08-07T10:44:44.984Z,75.30
2023-08-07T10:45:45.027Z,76.71
2023-08-07T10:46:45.206Z,76.61
2023-08-07T10:47:44.957Z,76.81
2023-08-07T10:48:44.959Z,77.51
2023-08-07T10:49:44.942Z,77.82
2023-08-07T10:50:44.910Z,78.83
2023-08-07T10:51:44.902Z,79.03
2023-08-07T10:52:44.890Z,80.04
2023-08-07T10:53:44.906Z,80.64
2023-08-07T10:54:44.891Z,80.13
2023-08-07T10:55:44.865Z,78.06
2023-08-07T10:56:44.848Z,79.16
2023-08-07T10:57:44.835Z,78.36
2023-08-07T10:58:44.838Z,78.06
2023-08-07T10:59:44.815Z,79.21
2023-08-07T11:00:44.804Z,78.30
2023-08-07T11:01:44.831Z,79.00
2023-08-07T11:02:44.812Z,77.49
2023-08-07T11:03:44.788Z,78.30
2023-08-07T11:04:44.793Z,79.41
2023-08-07T11:05:44.749Z,79.21
2023-08-07T11:06:44.748Z,79.41
2023-08-07T11:07:44.753Z,80.11
2023-08-07T11:08:44.739Z,78.19
2023-08-07T11:09:44.709Z,77.69
2023-08-07T11:10:44.700Z,77.59
2023-08-07T11:11:44.701Z,76.68
2023-08-07T11:12:44.705Z,77.28
2023-08-07T11:13:44.679Z,78.80
2023-08-07T11:14:44.655Z,79.41
2023-08-07T11:15:44.744Z,79.21
2023-08-07T11:16:44.661Z,79.21
2023-08-07T11:17:44.708Z,80.41
2023-08-07T11:18:44.619Z,80.31
2023-08-07T11:19:44.606Z,80.01
2023-08-07T11:20:44.594Z,80.11
2023-08-07T11:21:44.626Z,80.21
2023-08-07T11:22:44.581Z,79.21
2023-08-07T11:23:44.579Z,80.18
2023-08-07T11:24:44.549Z,80.98
2023-08-07T11:25:44.571Z,77.86
2023-08-07T11:26:44.556Z,78.36
2023-08-07T11:27:44.527Z,77.75
2023-08-07T11:28:44.520Z,78.06
2023-08-07T11:29:44.513Z,76.24
2023-08-07T11:30:44.509Z,76.75
2023-08-07T11:31:44.600Z,76.95
2023-08-07T11:32:44.540Z,76.04
2023-08-07T11:33:44.471Z,77.15
2023-08-07T11:34:44.455Z,77.66
2023-08-07T11:35:44.461Z,78.06
2023-08-07T11:36:44.441Z,77.25
2023-08-07T11:37:44.421Z,76.44
2023-08-07T11:38:44.422Z,77.25
2023-08-07T11:39:44.438Z,77.15
2023-08-07T11:40:44.402Z,76.44
2023-08-07T11:41:44.394Z,76.44
2023-08-07T11:42:44.378Z,76.64
2023-08-07T11:43:45.246Z,76.75
2023-08-07T11:44:44.363Z,76.14
2023-08-07T11:45:44.389Z,74.83
2023-08-07T11:46:44.322Z,74.83
2023-08-07T11:47:44.352Z,76.14
2023-08-07T11:48:44.309Z,74.22
2023-08-07T11:49:44.318Z,74.22
2023-08-07T11:50:44.290Z,75.13
2023-08-07T11:51:44.288Z,76.44
2023-08-07T11:52:44.263Z,76.75
2023-08-07T11:53:44.299Z,76.84
2023-08-07T11:54:44.255Z,76.95
2023-08-07T11:55:44.241Z,76.75
2023-08-07T11:56:44.227Z,76.75
2023-08-07T11:57:44.219Z,76.34
2023-08-07T11:58:44.237Z,76.44
2023-08-07T11:59:44.194Z,76.95
2023-08-07T12:00:44.195Z,77.04
2023-08-07T12:01:44.221Z,76.71
2023-08-07T12:02:44.250Z,76.81
2023-08-07T12:03:44.253Z,76.81
2023-08-07T12:04:44.139Z,77.72
2023-08-07T12:05:44.136Z,77.38
2023-08-07T12:06:44.117Z,75.16
2023-08-07T12:07:44.128Z,75.46
2023-08-07T12:08:44.125Z,74.42
2023-08-07T12:09:44.089Z,75.23
2023-08-07T12:10:44.081Z,75.90
2023-08-07T12:11:44.083Z,75.79
2023-08-07T12:12:44.077Z,73.24
2023-08-07T12:13:44.053Z,72.17
2023-08-07T12:14:44.036Z,72.07
2023-08-07T12:15:44.034Z,72.88
2023-08-07T12:16:44.020Z,72.57
2023-08-07T12:17:44.079Z,72.47
2023-08-07T12:18:43.996Z,73.08
2023-08-07T12:19:44.059Z,75.09
2023-08-07T12:20:43.992Z,73.68
2023-08-07T12:21:44.022Z,72.31
2023-08-07T12:22:43.972Z,71.91
2023-08-07T12:23:45.089Z,70.32
2023-08-07T12:24:43.940Z,71.03
2023-08-07T12:25:43.922Z,70.26
2023-08-07T12:26:43.935Z,68.54
2023-08-07T12:27:43.915Z,71.91
2023-08-07T12:28:43.902Z,71.10
2023-08-07T12:29:43.886Z,72.07
2023-08-07T12:30:43.865Z,71.17
2023-08-07T12:31:43.918Z,71.17
2023-08-07T12:32:43.870Z,72.58
2023-08-07T12:33:43.841Z,71.67
2023-08-07T12:35:43.840Z,72.20
2023-08-07T12:36:43.841Z,72.71
2023-08-07T12:37:43.795Z,72.51
2023-08-07T12:38:43.802Z,74.12
2023-08-07T12:40:44.738Z,73.72
2023-08-07T12:42:23.824Z,74.19
2023-08-07T12:42:44.750Z,74.08
2023-08-07T12:43:43.753Z,72.74
2023-08-07T12:44:43.748Z,71.73
2023-08-07T12:46:43.756Z,72.11
2023-08-07T12:47:43.775Z,73.92
2023-08-07T12:48:43.699Z,71.77
2023-08-07T12:49:43.695Z,70.86
2023-08-07T12:50:43.692Z,71.94
2023-08-07T12:51:43.661Z,70.43
2023-08-07T12:52:43.679Z,71.00
2023-08-07T12:53:43.636Z,71.20
2023-08-07T12:54:43.645Z,71.26
2023-08-07T12:55:43.626Z,70.56